createdAt,value
2018-01-07T00:00:08.145Z,100956.20
2018-01-07T00:02:36.165Z,100955.84
2018-01-07T00:05:07.684Z,100954.37
2018-01-07T00:07:35.725Z,100958.48
2018-01-07T00:10:06.453Z,100959.69
2018-01-07T00:12:34.480Z,100963.78
2018-01-07T00:15:06.018Z,100966.38
2018-01-07T00:17:34.100Z,100969.73
2018-01-07T00:20:05.598Z,100978.19
2018-01-07T00:22:33.625Z,100978.42
2018-01-07T00:27:34.039Z,100980.47
2018-01-07T00:30:05.206Z,100975.95
2018-01-07T00:32:33.353Z,100977.11
2018-01-07T00:35:06.110Z,100977.56
2018-01-07T00:37:34.106Z,100984.75
2018-01-07T00:40:05.228Z,100982.28
2018-01-07T00:42:33.232Z,100989.54
2018-01-07T00:45:04.343Z,100992.79
2018-01-07T00:47:32.346Z,100998.21
2018-01-07T00:50:00.372Z,100997.33
2018-01-07T00:52:28.522Z,101008.12
2018-01-07T00:54:56.558Z,101006.16
2018-01-07T00:57:24.700Z,101013.59
2018-01-07T00:59:52.736Z,101020.98
2018-01-07T01:02:20.759Z,101026.62
2018-01-07T01:04:48.765Z,101024.81
2018-01-07T01:07:16.850Z,101023.37
2018-01-07T01:09:44.852Z,101027.37
2018-01-07T01:12:12.890Z,101028.81
2018-01-07T01:14:40.896Z,101030.16
2018-01-07T01:17:08.952Z,101040.14
2018-01-07T01:19:37.006Z,101039.55
2018-01-07T01:22:05.009Z,101052.44
2018-01-07T01:24:33.441Z,101047.72
2018-01-07T01:27:01.481Z,101047.08
2018-01-07T01:29:29.596Z,101057.09
2018-01-07T01:31:57.599Z,101066.30
2018-01-07T01:34:25.659Z,101063.77
2018-01-07T01:36:53.804Z,101079.55
2018-01-07T01:39:21.836Z,101079.92
2018-01-07T01:41:49.862Z,101085.80
2018-01-07T01:44:17.884Z,101086.94
2018-01-07T01:46:45.892Z,101096.58
2018-01-07T01:49:22.540Z,101101.43
2018-01-07T01:51:50.553Z,101107.66
2018-01-07T01:54:18.572Z,101104.14
2018-01-07T01:56:46.610Z,101114.08
2018-01-07T01:59:14.680Z,101117.75
2018-01-07T02:01:42.732Z,101125.01
2018-01-07T02:04:10.754Z,101124.15
2018-01-07T02:06:38.780Z,101120.63
2018-01-07T02:09:06.788Z,101125.04
2018-01-07T02:11:35.109Z,101126.29
2018-01-07T02:14:03.608Z,101130.33
2018-01-07T02:16:32.260Z,101134.34
2018-01-07T02:19:00.280Z,101139.61
2018-01-07T02:21:28.316Z,101141.69
2018-01-07T02:23:56.360Z,101143.44
2018-01-07T02:26:24.458Z,101148.03
2018-01-07T02:28:52.464Z,101139.79
2018-01-07T02:31:20.495Z,101150.02
2018-01-07T02:33:48.524Z,101148.45
2018-01-07T02:36:16.529Z,101157.36
2018-01-07T02:38:44.565Z,101158.09
2018-01-07T02:41:12.768Z,101153.45
2018-01-07T02:43:41.272Z,101154.36
2018-01-07T02:46:10.134Z,101153.44
2018-01-07T02:48:38.336Z,101161.83
2018-01-07T02:51:06.370Z,101172.72
2018-01-07T02:53:34.695Z,101172.33
2018-01-07T02:56:02.844Z,101179.70
2018-01-07T02:58:31.080Z,101181.81
2018-01-07T03:00:59.100Z,101181.41
2018-01-07T03:03:27.176Z,101190.02
2018-01-07T03:05:55.186Z,101180.03
2018-01-07T03:08:23.193Z,101186.49
2018-01-07T03:10:51.228Z,101193.19
2018-01-07T03:13:19.252Z,101196.34
2018-01-07T03:15:47.296Z,101206.29
2018-01-07T03:18:15.324Z,101201.53
2018-01-07T03:20:43.341Z,101218.54
2018-01-07T03:23:11.352Z,101220.37
2018-01-07T03:25:39.517Z,101215.92
2018-01-07T03:28:07.528Z,101213.41
2018-01-07T03:30:36.397Z,101216.44
2018-01-07T03:33:04.419Z,101211.88
2018-01-07T03:35:32.453Z,101219.11
2018-01-07T03:38:00.498Z,101212.98
2018-01-07T03:40:28.540Z,101223.09
2018-01-07T03:42:56.567Z,101220.95
2018-01-07T03:45:24.685Z,101217.23
2018-01-07T03:47:52.750Z,101211.31
2018-01-07T03:50:20.772Z,101220.69
2018-01-07T03:52:48.783Z,101215.42
2018-01-07T03:55:17.880Z,101211.96
2018-01-07T03:57:45.937Z,101219.87
2018-01-07T04:00:13.946Z,101228.92
2018-01-07T04:02:41.977Z,101234.50
2018-01-07T04:05:09.980Z,101235.78
2018-01-07T04:07:38.017Z,101236.24
2018-01-07T04:10:06.022Z,101232.76
2018-01-07T04:12:34.059Z,101236.91
2018-01-07T04:15:05.494Z,101246.19
2018-01-07T04:17:33.513Z,101241.28
2018-01-07T04:20:08.052Z,101249.68
2018-01-07T04:22:36.083Z,101247.14
2018-01-07T04:25:07.319Z,101244.56
2018-01-07T04:27:35.320Z,101244.34
2018-01-07T04:30:06.692Z,101240.19
2018-01-07T04:32:34.716Z,101242.16
2018-01-07T04:35:05.878Z,101243.39
2018-01-07T04:37:34.892Z,101245.66
2018-01-07T04:40:06.786Z,101242.77
2018-01-07T04:42:34.786Z,101251.23
2018-01-07T04:45:06.438Z,101253.55
2018-01-07T04:47:34.446Z,101261.69
2018-01-07T04:50:05.517Z,101261.43
2018-01-07T04:52:33.733Z,101268.92
2018-01-07T04:55:08.245Z,101275.09
2018-01-07T04:57:36.248Z,101281.69
2018-01-07T05:00:07.375Z,101288.61
2018-01-07T05:02:35.384Z,101279.16
2018-01-07T05:05:06.927Z,101273.51
2018-01-07T05:07:34.952Z,101277.52
2018-01-07T05:10:06.232Z,101275.09
2018-01-07T05:12:34.267Z,101277.95
2018-01-07T05:15:05.403Z,101284.44
2018-01-07T05:17:33.482Z,101280.34
2018-01-07T05:20:04.493Z,101282.06
2018-01-07T05:22:32.517Z,101283.06
2018-01-07T05:25:01.989Z,101280.52
2018-01-07T05:27:31.803Z,101285.99
2018-01-07T05:29:59.821Z,101297.66
2018-01-07T05:32:33.493Z,101294.13
2018-01-07T05:35:04.443Z,101293.70
2018-01-07T05:37:32.459Z,101303.41
2018-01-07T05:40:04.436Z,101303.05
2018-01-07T05:42:32.425Z,101323.78
2018-01-07T05:45:02.205Z,101312.42
2018-01-07T05:47:31.580Z,101324.27
2018-01-07T05:49:59.614Z,101316.74
2018-01-07T05:52:27.618Z,101316.45
2018-01-07T05:54:55.651Z,101321.58
2018-01-07T05:57:24.198Z,101318.03
2018-01-07T05:59:52.542Z,101327.82
2018-01-07T06:02:20.799Z,101337.52
2018-01-07T06:04:48.796Z,101346.96
2018-01-07T06:07:16.918Z,101348.56
2018-01-07T06:09:44.926Z,101357.89
2018-01-07T06:12:12.945Z,101348.25
2018-01-07T06:14:40.940Z,101354.56
2018-01-07T06:17:08.961Z,101362.96
2018-01-07T06:19:37.580Z,101357.62
2018-01-07T06:22:05.753Z,101361.45
2018-01-07T06:24:33.806Z,101357.19
2018-01-07T06:27:01.825Z,101368.67
2018-01-07T06:29:29.843Z,101372.06
2018-01-07T06:31:57.852Z,101377.02
2018-01-07T06:34:26.208Z,101368.34
2018-01-07T06:36:54.380Z,101381.05
2018-01-07T06:39:22.393Z,101375.73
2018-01-07T06:41:50.701Z,101384.47
2018-01-07T06:44:18.718Z,101393.50
2018-01-07T06:46:46.719Z,101401.34
2018-01-07T06:49:14.740Z,101411.95
2018-01-07T06:51:43.433Z,101413.71
2018-01-07T06:54:11.485Z,101411.19
2018-01-07T06:56:39.485Z,101417.43
2018-01-07T06:59:07.732Z,101420.72
2018-01-07T07:01:35.744Z,101428.16
2018-01-07T07:04:03.785Z,101438.58
2018-01-07T07:06:31.792Z,101438.22
2018-01-07T07:08:59.797Z,101452.64
2018-01-07T07:11:27.811Z,101458.55
2018-01-07T07:13:56.380Z,101467.84
2018-01-07T07:16:24.638Z,101474.58
2018-01-07T07:18:52.638Z,101474.70
2018-01-07T07:21:20.811Z,101474.57
2018-01-07T07:23:48.808Z,101479.47
2018-01-07T07:26:16.820Z,101480.92
2018-01-07T07:28:44.833Z,101474.74
2018-01-07T07:31:12.866Z,101491.73
2018-01-07T07:33:40.861Z,101499.81
2018-01-07T07:36:08.875Z,101511.03
2018-01-07T07:38:36.963Z,101503.93
2018-01-07T07:41:05.013Z,101503.19
2018-01-07T07:43:33.196Z,101506.48
2018-01-07T07:46:01.152Z,101505.79
2018-01-07T07:48:29.175Z,101510.28
2018-01-07T07:50:57.173Z,101515.72
2018-01-07T07:53:25.426Z,101519.38
2018-01-07T07:55:53.532Z,101521.95
2018-01-07T07:58:21.551Z,101526.64
2018-01-07T08:00:49.569Z,101531.69
2018-01-07T08:03:17.603Z,101538.60
2018-01-07T08:05:45.604Z,101544.05
2018-01-07T08:08:13.617Z,101543.67
2018-01-07T08:10:41.688Z,101551.80
2018-01-07T08:13:09.668Z,101549.56
2018-01-07T08:15:37.700Z,101549.80
2018-01-07T08:18:05.820Z,101551.02
2018-01-07T08:20:34.004Z,101559.81
2018-01-07T08:23:02.020Z,101572.78
2018-01-07T08:25:30.169Z,101569.39
2018-01-07T08:27:58.240Z,101569.97
2018-01-07T08:30:26.736Z,101578.34
2018-01-07T08:32:55.242Z,101584.17
2018-01-07T08:35:23.262Z,101588.25
2018-01-07T08:37:51.270Z,101587.71
2018-01-07T08:40:20.111Z,101595.15
2018-01-07T08:42:48.108Z,101599.93
2018-01-07T08:45:16.152Z,101602.27
2018-01-07T08:47:44.193Z,101602.05
2018-01-07T08:50:12.208Z,101613.95
2018-01-07T08:52:40.214Z,101611.28
2018-01-07T08:55:08.212Z,101613.17
2018-01-07T08:57:36.248Z,101609.77
2018-01-07T09:00:05.943Z,101614.25
2018-01-07T09:02:33.964Z,101610.27
2018-01-07T09:05:08.305Z,101617.23
2018-01-07T09:07:36.357Z,101626.47
2018-01-07T09:10:06.170Z,101625.52
2018-01-07T09:12:34.184Z,101635.00
2018-01-07T09:15:09.002Z,101632.80
2018-01-07T09:17:37.034Z,101640.78
2018-01-07T09:20:06.164Z,101638.13
2018-01-07T09:22:34.202Z,101643.20
2018-01-07T09:25:05.833Z,101647.09
2018-01-07T09:27:33.867Z,101655.38
2018-01-07T09:30:08.388Z,101654.50
2018-01-07T09:32:36.402Z,101655.72
2018-01-07T09:35:05.940Z,101655.23
2018-01-07T09:37:33.974Z,101653.55
2018-01-07T09:40:09.038Z,101663.51
2018-01-07T09:42:37.139Z,101667.05
2018-01-07T09:45:06.643Z,101675.25
2018-01-07T09:47:34.652Z,101681.11
2018-01-07T09:50:07.497Z,101674.54
2018-01-07T09:52:35.496Z,101679.77
2018-01-07T09:55:06.733Z,101673.45
2018-01-07T09:57:34.730Z,101680.08
2018-01-07T10:00:09.410Z,101677.23
2018-01-07T10:02:37.409Z,101675.68
2018-01-07T10:05:06.581Z,101675.86
2018-01-07T10:07:34.570Z,101677.09
2018-01-07T10:10:05.854Z,101676.80
2018-01-07T10:12:33.854Z,101686.92
2018-01-07T10:15:08.227Z,101689.86
2018-01-07T10:17:36.359Z,101685.87
2018-01-07T10:20:09.157Z,101698.83
2018-01-07T10:22:37.655Z,101707.97
2018-01-07T10:25:06.804Z,101704.02
2018-01-07T10:27:35.129Z,101706.55
2018-01-07T10:30:06.069Z,101702.12
2018-01-07T10:32:34.084Z,101707.91
2018-01-07T10:35:08.988Z,101699.25
2018-01-07T10:37:37.024Z,101696.00
2018-01-07T10:40:06.135Z,101698.50
2018-01-07T10:42:34.159Z,101703.93
2018-01-07T10:45:07.539Z,101693.34
2018-01-07T10:47:35.712Z,101693.73
2018-01-07T10:50:06.975Z,101689.73
2018-01-07T10:52:35.316Z,101696.52
2018-01-07T10:55:06.371Z,101698.50
2018-01-07T10:57:34.383Z,101699.61
2018-01-07T11:00:09.057Z,101706.16
2018-01-07T11:02:37.051Z,101701.23
2018-01-07T11:05:06.198Z,101701.66
2018-01-07T11:07:34.184Z,101708.39
2018-01-07T11:10:07.555Z,101710.30
2018-01-07T11:12:35.740Z,101710.86
2018-01-07T11:15:07.272Z,101711.84
2018-01-07T11:17:35.260Z,101712.78
2018-01-07T11:20:06.112Z,101709.92
2018-01-07T11:22:34.425Z,101710.84
2018-01-07T11:25:09.267Z,101708.73
2018-01-07T11:27:37.615Z,101717.05
2018-01-07T11:30:06.671Z,101717.42
2018-01-07T11:32:35.225Z,101726.52
2018-01-07T11:35:07.623Z,101722.14
2018-01-07T11:37:35.651Z,101717.13
2018-01-07T11:40:06.077Z,101717.13
2018-01-07T11:42:34.105Z,101704.05
2018-01-07T11:45:08.575Z,101711.30
2018-01-07T11:47:36.659Z,101714.58
2018-01-07T11:50:06.500Z,101704.64
2018-01-07T11:52:35.019Z,101709.98
2018-01-07T11:55:06.879Z,101701.48
2018-01-07T11:57:35.204Z,101698.70
2018-01-07T12:00:06.338Z,101701.80
2018-01-07T12:02:34.328Z,101696.66
2018-01-07T12:05:05.581Z,101689.11
2018-01-07T12:07:33.852Z,101695.91
2018-01-07T12:10:04.905Z,101694.70
2018-01-07T12:12:33.424Z,101693.30
2018-01-07T12:15:04.551Z,101686.61
2018-01-07T12:17:32.538Z,101692.70
2018-01-07T12:20:00.605Z,101687.15
2018-01-07T12:22:31.640Z,101688.84
2018-01-07T12:24:59.711Z,101685.59
2018-01-07T12:27:27.779Z,101687.34
2018-01-07T12:29:56.736Z,101686.66
2018-01-07T12:32:25.516Z,101684.52
2018-01-07T12:34:57.137Z,101680.06
2018-01-07T12:37:25.181Z,101670.93
2018-01-07T12:39:53.673Z,101671.09
2018-01-07T12:42:21.698Z,101662.36
2018-01-07T12:44:49.929Z,101665.66
2018-01-07T12:47:18.173Z,101657.55
2018-01-07T12:49:50.104Z,101655.77
2018-01-07T12:52:18.156Z,101652.41
2018-01-07T12:54:46.469Z,101648.75
2018-01-07T12:57:14.559Z,101644.42
2018-01-07T12:59:42.590Z,101646.69
2018-01-07T13:02:10.730Z,101637.25
2018-01-07T13:04:38.755Z,101635.25
2018-01-07T13:07:06.777Z,101633.52
2018-01-07T13:09:34.797Z,101629.55
2018-01-07T13:12:02.812Z,101621.62
2018-01-07T13:14:30.821Z,101624.88
2018-01-07T13:16:58.839Z,101626.99
2018-01-07T13:19:26.874Z,101630.72
2018-01-07T13:21:54.914Z,101634.47
2018-01-07T13:24:23.106Z,101629.86
2018-01-07T13:26:51.117Z,101627.20
2018-01-07T13:29:19.105Z,101628.59
2018-01-07T13:31:47.337Z,101629.34
2018-01-07T13:34:15.553Z,101623.13
2018-01-07T13:36:43.704Z,101624.21
2018-01-07T13:39:11.700Z,101631.55
2018-01-07T13:41:39.728Z,101626.98
2018-01-07T13:44:07.748Z,101627.22
2018-01-07T13:46:35.768Z,101629.97
2018-01-07T13:49:03.768Z,101625.16
2018-01-07T13:51:32.275Z,101627.56
2018-01-07T13:54:00.492Z,101627.33
2018-01-07T13:56:28.510Z,101629.05
2018-01-07T13:58:56.526Z,101621.57
2018-01-07T14:01:24.521Z,101633.59
2018-01-07T14:03:52.553Z,101632.92
2018-01-07T14:06:21.761Z,101638.28
2018-01-07T14:08:49.801Z,101635.12
2018-01-07T14:11:17.830Z,101639.95
2018-01-07T14:13:45.843Z,101638.26
2018-01-07T14:16:14.066Z,101643.76
2018-01-07T14:18:42.011Z,101649.48
2018-01-07T14:21:10.212Z,101659.51
2018-01-07T14:23:38.241Z,101660.29
2018-01-07T14:26:06.293Z,101660.77
2018-01-07T14:28:34.298Z,101659.75
2018-01-07T14:31:02.364Z,101663.58
2018-01-07T14:33:30.396Z,101650.92
2018-01-07T14:35:58.478Z,101668.56
2018-01-07T14:38:26.489Z,101664.94
2018-01-07T14:40:54.489Z,101666.27
2018-01-07T14:43:22.530Z,101672.05
2018-01-07T14:45:50.539Z,101669.52
2018-01-07T14:48:19.195Z,101679.10
2018-01-07T14:50:47.709Z,101673.80
2018-01-07T14:53:15.739Z,101678.64
2018-01-07T14:55:43.760Z,101689.12
2018-01-07T14:58:11.863Z,101683.11
2018-01-07T15:00:39.872Z,101684.22
2018-01-07T15:03:08.408Z,101687.73
2018-01-07T15:05:36.456Z,101685.06
2018-01-07T15:08:04.452Z,101686.14
2018-01-07T15:10:32.490Z,101690.52
2018-01-07T15:13:00.477Z,101691.33
2018-01-07T15:15:28.508Z,101690.03
2018-01-07T15:17:56.826Z,101707.70
2018-01-07T15:20:24.821Z,101705.13
2018-01-07T15:22:52.832Z,101700.39
2018-01-07T15:25:20.916Z,101706.78
2018-01-07T15:27:48.936Z,101708.49
2018-01-07T15:30:16.975Z,101712.63
2018-01-07T15:32:45.021Z,101713.57
2018-01-07T15:35:13.047Z,101715.83
2018-01-07T15:37:41.033Z,101713.10
2018-01-07T15:40:09.201Z,101731.08
2018-01-07T15:42:37.208Z,101730.98
2018-01-07T15:45:07.265Z,101732.31
2018-01-07T15:47:35.279Z,101739.20
2018-01-07T15:50:06.673Z,101748.09
2018-01-07T15:52:34.708Z,101743.48
2018-01-07T15:55:06.253Z,101740.41
2018-01-07T15:57:34.273Z,101742.73
2018-01-07T16:00:08.744Z,101746.87
2018-01-07T16:02:37.162Z,101759.01
2018-01-07T16:05:08.436Z,101758.17
2018-01-07T16:07:36.722Z,101760.91
2018-01-07T16:10:07.653Z,101754.89
2018-01-07T16:12:35.665Z,101761.34
2018-01-07T16:15:07.122Z,101759.67
2018-01-07T16:17:35.149Z,101753.09
2018-01-07T16:20:06.482Z,101756.23
2018-01-07T16:22:34.513Z,101752.08
2018-01-07T16:25:06.132Z,101755.67
2018-01-07T16:27:34.193Z,101758.30
2018-01-07T16:30:07.641Z,101744.16
2018-01-07T16:32:35.691Z,101755.37
2018-01-07T16:35:06.732Z,101761.16
2018-01-07T16:37:34.763Z,101762.06
2018-01-07T16:40:06.260Z,101767.08
2018-01-07T16:42:34.374Z,101770.97
2018-01-07T16:45:08.802Z,101761.70
2018-01-07T16:47:36.815Z,101770.64
2018-01-07T16:50:08.373Z,101776.66
2018-01-07T16:52:37.070Z,101778.73
2018-01-07T16:55:06.749Z,101783.44
2018-01-07T16:57:34.744Z,101777.47
2018-01-07T17:00:05.883Z,101780.10
2018-01-07T17:02:33.899Z,101781.55
2018-01-07T17:05:08.644Z,101777.67
2018-01-07T17:07:36.818Z,101784.75
2018-01-07T17:10:08.530Z,101788.63
2018-01-07T17:12:36.513Z,101786.75
2018-01-07T17:15:07.621Z,101793.08
2018-01-07T17:17:35.660Z,101795.45
2018-01-07T17:20:07.286Z,101795.66
2018-01-07T17:22:35.313Z,101796.63
2018-01-07T17:25:06.728Z,101803.36
2018-01-07T17:27:34.753Z,101795.47
2018-01-07T17:30:06.791Z,101793.44
2018-01-07T17:32:34.795Z,101800.20
2018-01-07T17:35:05.943Z,101806.14
2018-01-07T17:37:33.982Z,101806.48
2018-01-07T17:40:08.357Z,101810.28
2018-01-07T17:42:36.748Z,101817.75
2018-01-07T17:45:05.889Z,101804.02
2018-01-07T17:47:34.073Z,101808.98
2018-01-07T17:50:05.318Z,101808.47
2018-01-07T17:52:33.337Z,101822.26
2018-01-07T17:57:34.982Z,101820.88
2018-01-07T18:00:06.158Z,101821.06
2018-01-07T18:02:34.347Z,101837.18
2018-01-07T18:05:06.040Z,101839.77
2018-01-07T18:07:34.085Z,101835.78
2018-01-07T18:10:06.207Z,101846.59
2018-01-07T18:12:36.273Z,101842.97
2018-01-07T18:15:07.838Z,101843.17
2018-01-07T18:17:35.851Z,101844.88
2018-01-07T18:20:07.259Z,101850.58
2018-01-07T18:22:36.601Z,101852.52
2018-01-07T18:25:07.737Z,101852.12
2018-01-07T18:27:35.996Z,101848.31
2018-01-07T18:30:07.264Z,101851.39
2018-01-07T18:32:35.296Z,101858.88
2018-01-07T18:35:06.755Z,101861.56
2018-01-07T18:37:34.788Z,101855.61
2018-01-07T18:40:05.953Z,101862.73
2018-01-07T18:42:33.987Z,101859.48
2018-01-07T18:45:08.339Z,101861.25
2018-01-07T18:47:36.369Z,101866.48
2018-01-07T18:50:05.945Z,101862.00
2018-01-07T18:52:34.237Z,101862.26
2018-01-07T18:55:08.928Z,101868.09
2018-01-07T18:57:37.007Z,101867.91
2018-01-07T19:00:06.718Z,101871.27
2018-01-07T19:02:34.869Z,101870.58
2018-01-07T19:05:06.021Z,101869.45
2018-01-07T19:07:34.061Z,101872.58
2018-01-07T19:10:05.964Z,101871.16
2018-01-07T19:12:34.027Z,101880.25
2018-01-07T19:15:08.337Z,101888.41
2018-01-07T19:17:36.370Z,101889.55
2018-01-07T19:20:07.761Z,101884.05
2018-01-07T19:22:35.750Z,101886.84
2018-01-07T19:25:07.232Z,101890.20
2018-01-07T19:27:35.252Z,101889.77
2018-01-07T19:30:06.626Z,101895.36
2018-01-07T19:32:34.665Z,101894.84
2018-01-07T19:35:06.296Z,101888.91
2018-01-07T19:37:34.316Z,101889.59
2018-01-07T19:40:05.400Z,101885.82
2018-01-07T19:42:33.445Z,101876.42
2018-01-07T19:45:04.853Z,101883.83
2018-01-07T19:47:32.870Z,101884.33
2018-01-07T19:50:04.102Z,101874.70
2018-01-07T19:52:32.126Z,101867.41
2018-01-07T19:55:00.148Z,101878.13
2018-01-07T19:57:34.165Z,101871.98
2018-01-07T20:00:05.409Z,101866.97
2018-01-07T20:02:33.455Z,101872.93
2018-01-07T20:05:06.437Z,101874.91
2018-01-07T20:07:34.452Z,101870.09
2018-01-07T20:10:05.524Z,101882.75
2018-01-07T20:12:33.572Z,101874.42
2018-01-07T20:15:04.813Z,101874.80
2018-01-07T20:17:32.906Z,101876.67
2018-01-07T20:22:35.613Z,101877.79
2018-01-07T20:25:06.284Z,101874.86
2018-01-07T20:27:34.367Z,101877.55
2018-01-07T20:30:05.941Z,101868.04
2018-01-07T20:32:34.118Z,101873.03
2018-01-07T20:35:09.096Z,101871.09
2018-01-07T20:37:37.145Z,101866.56
2018-01-07T20:40:06.739Z,101865.33
2018-01-07T20:42:34.744Z,101860.63
2018-01-07T20:45:06.351Z,101866.78
2018-01-07T20:47:34.392Z,101871.56
2018-01-07T20:50:05.889Z,101865.38
2018-01-07T20:52:33.928Z,101865.31
2018-01-07T20:55:08.468Z,101873.39
2018-01-07T20:57:36.473Z,101870.69
2018-01-07T21:00:06.478Z,101876.39
2018-01-07T21:02:34.696Z,101867.94
2018-01-07T21:05:06.334Z,101865.08
2018-01-07T21:07:34.349Z,101865.03
2018-01-07T21:10:06.054Z,101867.28
2018-01-07T21:12:34.084Z,101862.90
2018-01-07T21:15:08.493Z,101866.36
2018-01-07T21:17:36.525Z,101863.77
2018-01-07T21:20:07.958Z,101861.95
2018-01-07T21:22:36.026Z,101856.27
2018-01-07T21:25:07.457Z,101859.95
2018-01-07T21:27:35.751Z,101863.02
2018-01-07T21:30:06.896Z,101853.72
2018-01-07T21:32:34.936Z,101858.44
2018-01-07T21:35:06.136Z,101860.75
2018-01-07T21:37:34.139Z,101863.41
2018-01-07T21:40:05.442Z,101861.56
2018-01-07T21:42:33.484Z,101854.93
2018-01-07T21:45:04.646Z,101846.34
2018-01-07T21:47:32.640Z,101857.76
2018-01-07T21:50:00.730Z,101865.33
2018-01-07T21:52:31.450Z,101868.27
2018-01-07T21:54:59.526Z,101863.83
2018-01-07T21:57:27.553Z,101854.12
2018-01-07T22:00:08.686Z,101847.43
2018-01-07T22:02:45.515Z,101862.90
2018-01-07T22:05:16.386Z,101862.31
2018-01-07T22:07:44.424Z,101864.11
2018-01-07T22:10:12.450Z,101855.50
2018-01-07T22:12:40.476Z,101855.06
2018-01-07T22:15:08.482Z,101862.75
2018-01-07T22:17:36.813Z,101858.41
2018-01-07T22:20:07.753Z,101853.31
2018-01-07T22:22:35.762Z,101857.92
2018-01-07T22:25:07.281Z,101853.68
2018-01-07T22:27:35.540Z,101856.87
2018-01-07T22:30:06.396Z,101855.62
2018-01-07T22:32:35.322Z,101850.86
2018-01-07T22:35:06.490Z,101856.86
2018-01-07T22:37:34.536Z,101856.11
2018-01-07T22:40:06.236Z,101857.36
2018-01-07T22:42:34.276Z,101855.87
2018-01-07T22:45:05.538Z,101855.84
2018-01-07T22:47:39.083Z,101850.42
2018-01-07T22:50:07.117Z,101856.34
2018-01-07T22:52:35.154Z,101848.13
2018-01-07T22:55:06.896Z,101848.91
2018-01-07T22:57:34.918Z,101839.91
2018-01-07T23:00:06.509Z,101838.20
2018-01-07T23:02:34.862Z,101833.61
2018-01-07T23:05:09.202Z,101840.41
2018-01-07T23:07:37.221Z,101831.59
2018-01-07T23:10:06.567Z,101838.91
2018-01-07T23:12:34.572Z,101826.67
2018-01-07T23:15:05.656Z,101831.23
2018-01-07T23:17:33.680Z,101834.11
2018-01-07T23:22:34.368Z,101837.61
2018-01-07T23:25:05.838Z,101831.70
2018-01-07T23:27:33.851Z,101830.98
2018-01-07T23:30:04.884Z,101830.80
2018-01-07T23:32:32.900Z,101822.93
2018-01-07T23:35:05.632Z,101823.81
2018-01-07T23:37:33.638Z,101812.52
2018-01-07T23:40:04.944Z,101833.13
2018-01-07T23:42:32.973Z,101836.37
2018-01-07T23:45:05.838Z,101832.63
2018-01-07T23:47:33.853Z,101834.82
2018-01-07T23:50:08.201Z,101833.22
2018-01-07T23:52:36.537Z,101829.03
2018-01-07T23:55:07.509Z,101826.56
2018-01-07T23:57:35.557Z,101835.58
